Time;durP1;ratioP1;P1;durP2;ratioP2;P2;SDS_P1;SDS_P2;PMS_P1;PMS_P2;Temp;Humidity;BMP_temperature;BMP_pressure;BME280_temperature;BME280_humidity;BME280_pressure;Samples;Min_cycle;Max_cycle;Signal;HPM_P1;HPM_P2
2022/09/01 00:01:13;;;;;;;0.70;0.70;;;;;;;17.18;62.93;102396.16;6205604;28;20229;-73
2022/09/01 00:04:37;;;;;;;1.08;0.75;;;;;;;17.04;63.21;102402.91;6206540;28;20221;-73
2022/09/01 00:07:58;;;;;;;1.65;0.80;;;;;;;17.05;63.08;102393.72;6209436;28;20241;-72
2022/09/01 00:11:20;;;;;;;0.93;0.82;;;;;;;16.99;63.73;102404.31;6206632;28;20229;-73
2022/09/01 00:14:41;;;;;;;0.70;0.70;;;;;;;16.94;64.07;102402.00;6212499;28;20225;-73
2022/09/01 00:18:03;;;;;;;1.20;0.88;;;;;;;16.92;64.52;102411.34;6212275;28;20248;-73
2022/09/01 00:21:28;;;;;;;1.98;1.65;;;;;;;16.97;63.85;102398.13;6214322;28;20233;-72
2022/09/01 00:24:49;;;;;;;1.33;0.80;;;;;;;16.90;64.35;102392.38;6191160;28;20491;-72
2022/09/01 00:28:10;;;;;;;2.20;0.75;;;;;;;16.86;64.30;102396.38;6213454;28;20294;-73
2022/09/01 00:31:32;;;;;;;0.90;0.80;;;;;;;16.85;64.45;102394.69;6204905;28;20241;-73
2022/09/01 00:34:53;;;;;;;1.00;1.00;;;;;;;16.83;64.75;102391.25;6196829;28;20323;-73
2022/09/01 00:38:15;;;;;;;1.02;0.93;;;;;;;16.85;64.31;102383.78;6214691;28;20245;-73
2022/09/01 00:41:38;;;;;;;0.50;0.50;;;;;;;16.85;64.35;102386.50;6216354;28;20335;-73
2022/09/01 00:44:59;;;;;;;1.55;0.80;;;;;;;16.79;65.03;102390.63;6242777;28;20439;-73
2022/09/01 00:48:20;;;;;;;1.75;0.93;;;;;;;16.75;65.32;102382.91;6231448;28;20225;-73
2022/09/01 00:51:46;;;;;;;0.88;0.60;;;;;;;16.74;65.13;102383.91;6232245;28;20308;-73
2022/09/01 00:55:14;;;;;;;2.03;0.90;;;;;;;16.71;65.25;102387.75;6229781;28;20261;-72
2022/09/01 00:58:36;;;;;;;1.02;0.77;;;;;;;16.71;65.13;102384.16;6248751;28;20228;-72
2022/09/01 01:01:58;;;;;;;1.45;0.50;;;;;;;16.65;65.36;102380.13;6234984;28;20240;-72
2022/09/01 01:05:20;;;;;;;1.08;1.00;;;;;;;16.61;65.96;102375.97;6208387;28;20229;-73
2022/09/01 01:08:56;;;;;;;1.00;0.60;;;;;;;16.64;65.54;102377.56;6234618;28;20222;-73
2022/09/01 01:12:19;;;;;;;0.68;0.50;;;;;;;16.62;66.02;102376.84;6205676;28;20256;-73
2022/09/01 01:15:42;;;;;;;0.80;0.68;;;;;;;16.58;66.05;102376.22;6206846;28;20616;-74
2022/09/01 01:19:04;;;;;;;0.52;0.52;;;;;;;16.55;66.18;102378.38;6208890;28;20265;-72
2022/09/01 01:26:15;;;;;;;0.55;0.50;;;;;;;16.52;66.02;102379.50;6205351;28;20221;-73
2022/09/01 01:29:38;;;;;;;3.42;1.35;;;;;;;16.49;66.20;102377.09;6219869;28;20233;-72
2022/09/01 01:33:00;;;;;;;0.80;0.50;;;;;;;16.44;66.55;102383.88;6235933;28;20323;-72
2022/09/01 01:36:31;;;;;;;0.90;0.82;;;;;;;16.41;66.72;102378.72;6234071;28;20256;-72
2022/09/01 01:39:54;;;;;;;1.40;0.80;;;;;;;16.42;66.40;102381.31;6234028;28;20228;-72
2022/09/01 01:43:21;;;;;;;0.70;0.70;;;;;;;16.35;66.99;102382.88;6210986;28;20237;-72
2022/09/01 01:46:45;;;;;;;0.55;0.50;;;;;;;16.32;66.41;102387.72;6202332;28;20312;-72
2022/09/01 01:50:08;;;;;;;0.57;0.40;;;;;;;16.37;66.13;102388.16;6209940;28;20241;-72
2022/09/01 01:53:31;;;;;;;0.77;0.60;;;;;;;16.27;66.38;102388.09;6213551;28;20233;-72
2022/09/01 01:56:52;;;;;;;0.50;0.50;;;;;;;16.17;67.14;102380.88;6216101;28;20225;-73
2022/09/01 02:00:19;;;;;;;0.33;0.33;;;;;;;16.01;68.13;102381.41;6232042;28;20236;-73
2022/09/01 02:03:40;;;;;;;0.40;0.40;;;;;;;16.05;67.85;102379.25;6208132;28;20677;-73
2022/09/01 02:07:01;;;;;;;0.50;0.50;;;;;;;16.14;68.10;102382.06;6206127;28;20229;-73
2022/09/01 02:10:24;;;;;;;0.57;0.53;;;;;;;16.17;67.52;102380.88;6224980;28;20221;-73
2022/09/01 02:13:45;;;;;;;0.68;0.68;;;;;;;16.14;67.83;102384.78;6231939;28;20319;-73
2022/09/01 02:17:07;;;;;;;0.70;0.70;;;;;;;16.07;68.14;102385.44;6232228;28;20527;-73
2022/09/01 02:20:31;;;;;;;1.07;1.07;;;;;;;15.96;68.74;102392.69;6234043;28;20388;-73
2022/09/01 02:23:59;;;;;;;1.00;0.90;;;;;;;16.02;68.40;102385.81;6228638;28;20224;-73
2022/09/01 02:27:25;;;;;;;0.40;0.40;;;;;;;15.99;68.11;102391.56;6229579;28;20239;-73
2022/09/01 02:30:50;;;;;;;0.65;0.52;;;;;;;15.90;68.41;102387.78;6225400;28;20441;-73
2022/09/01 02:34:13;;;;;;;1.02;1.02;;;;;;;15.91;68.65;102386.78;6209662;28;20307;-73
2022/09/01 02:37:35;;;;;;;1.23;0.90;;;;;;;15.73;69.19;102379.34;6229441;28;20646;-73
2022/09/01 02:40:57;;;;;;;0.50;0.50;;;;;;;15.74;69.68;102381.94;6232296;28;20232;-73
2022/09/01 02:44:20;;;;;;;0.40;0.40;;;;;;;15.85;68.94;102381.84;6233690;28;20224;-72
2022/09/01 02:47:47;;;;;;;0.82;0.40;;;;;;;15.87;68.91;102381.75;6234332;28;20610;-71
2022/09/01 02:51:14;;;;;;;0.50;0.50;;;;;;;15.77;69.63;102381.66;6226541;28;20236;-72
2022/09/01 02:54:35;;;;;;;0.87;0.60;;;;;;;15.70;69.47;102366.91;6229231;28;20604;-72
2022/09/01 02:57:57;;;;;;;0.50;0.40;;;;;;;15.75;70.06;102380.94;6238076;28;20622;-72
2022/09/01 03:01:23;;;;;;;1.10;0.80;;;;;;;15.71;69.87;102373.16;6201788;28;20252;-73
2022/09/01 03:04:44;;;;;;;0.40;0.40;;;;;;;15.70;69.96;102379.63;6204305;28;20315;-73
2022/09/01 03:08:09;;;;;;;1.73;1.23;;;;;;;15.63;70.30;102371.13;6216474;28;20645;-72
2022/09/01 03:11:33;;;;;;;0.70;0.70;;;;;;;15.69;69.74;102376.03;6204442;28;20233;-74
2022/09/01 03:14:54;;;;;;;0.90;0.70;;;;;;;15.67;69.72;102375.31;6213967;28;20253;-72
2022/09/01 03:18:17;;;;;;;0.43;0.43;;;;;;;15.53;70.46;102370.19;6213060;28;20229;-73
2022/09/01 03:21:40;;;;;;;0.80;0.80;;;;;;;15.46;70.53;102379.84;6201107;28;20226;-73
2022/09/01 03:25:03;;;;;;;3.47;1.03;;;;;;;15.43;70.77;102382.00;6246490;28;20505;-73
2022/09/01 03:28:25;;;;;;;0.90;0.40;;;;;;;15.43;71.04;102380.13;6230634;28;20229;-73
2022/09/01 03:31:46;;;;;;;0.70;0.50;;;;;;;15.32;71.06;102376.56;6228372;28;20240;-73
2022/09/01 03:35:08;;;;;;;2.10;1.20;;;;;;;15.26;71.14;102382.50;6231656;28;20256;-73
2022/09/01 03:38:31;;;;;;;2.43;2.23;;;;;;;15.25;71.85;102380.81;6237243;28;20228;-73
2022/09/01 03:41:56;;;;;;;5.13;4.57;;;;;;;15.31;71.77;102374.84;6231512;28;20220;-73
2022/09/01 03:45:19;;;;;;;4.93;2.67;;;;;;;15.33;71.46;102378.31;6224881;28;20552;-73
2022/09/01 03:48:41;;;;;;;4.93;3.13;;;;;;;15.30;71.23;102373.09;6212751;28;20248;-73
2022/09/01 03:52:03;;;;;;;4.60;4.30;;;;;;;15.21;72.11;102377.47;6210576;28;20233;-73
2022/09/01 03:55:29;;;;;;;1.80;1.70;;;;;;;15.24;71.57;102374.50;6208288;28;20233;-73
2022/09/01 03:58:55;;;;;;;1.60;1.50;;;;;;;15.27;71.62;102376.94;6211502;28;20229;-73
2022/09/01 04:02:16;;;;;;;1.17;1.07;;;;;;;15.13;71.94;102367.25;6203051;28;20590;-72
2022/09/01 04:05:39;;;;;;;2.67;2.43;;;;;;;15.11;72.34;102362.94;6202981;28;20256;-72
2022/09/01 04:09:02;;;;;;;3.43;3.07;;;;;;;15.06;72.57;102370.63;6210046;28;20241;-71
2022/09/01 04:12:25;;;;;;;3.77;3.37;;;;;;;15.00;72.14;102371.97;6206292;28;20229;-73
2022/09/01 04:15:48;;;;;;;1.80;1.30;;;;;;;14.95;72.66;102371.53;6209060;28;20315;-72
2022/09/01 04:19:18;;;;;;;2.93;2.00;;;;;;;15.00;72.76;102373.81;6227798;28;20239;-72
2022/09/01 04:22:39;;;;;;;2.77;2.57;;;;;;;14.92;73.04;102370.91;6220931;28;20237;-72
2022/09/01 04:26:07;;;;;;;2.27;1.67;;;;;;;14.85;72.89;102370.53;6218782;28;20229;-73
2022/09/01 04:29:30;;;;;;;2.47;2.27;;;;;;;14.81;73.07;102370.94;6243923;28;20256;-73
2022/09/01 04:32:55;;;;;;;2.30;2.03;;;;;;;14.82;73.41;102368.09;6209384;28;20571;-72
2022/09/01 04:36:21;;;;;;;1.70;1.60;;;;;;;14.72;73.53;102368.97;6228081;28;20233;-72
2022/09/01 04:39:47;;;;;;;3.57;1.80;;;;;;;14.54;74.26;102371.34;6231078;28;20591;-73
2022/09/01 04:43:09;;;;;;;3.07;1.83;;;;;;;14.66;73.79;102372.19;6232654;28;20547;-73
2022/09/01 04:46:34;;;;;;;2.70;1.83;;;;;;;14.78;73.09;102368.47;6236207;28;20677;-72
2022/09/01 04:50:00;;;;;;;1.73;1.40;;;;;;;14.79;73.24;102372.91;6249207;28;20330;-72
2022/09/01 04:53:23;;;;;;;2.67;1.70;;;;;;;14.76;73.51;102376.75;6235470;28;20225;-73
2022/09/01 04:56:48;;;;;;;8.27;6.87;;;;;;;14.89;73.24;102387.47;6231744;28;20237;-73
2022/09/01 05:00:21;;;;;;;3.67;3.37;;;;;;;14.88;73.00;102383.00;6234492;28;20538;-73
2022/09/01 05:03:42;;;;;;;2.60;2.30;;;;;;;14.95;72.67;102374.25;6231341;28;20220;-73
2022/09/01 05:07:13;;;;;;;4.00;2.63;;;;;;;15.13;72.65;102378.13;6232991;28;20232;-73
2022/09/01 05:10:34;;;;;;;2.53;1.57;;;;;;;15.00;72.46;102379.25;6232463;28;20224;-73
2022/09/01 05:14:08;;;;;;;1.30;1.30;;;;;;;15.07;72.56;102378.63;6233648;28;20232;-72
2022/09/01 05:17:29;;;;;;;0.87;0.87;;;;;;;15.29;72.02;102383.09;6202449;28;20550;-72
2022/09/01 05:20:52;;;;;;;1.13;0.90;;;;;;;15.43;71.46;102390.13;6201884;28;20233;-73
2022/09/01 05:24:17;;;;;;;0.73;0.73;;;;;;;15.21;72.30;102388.34;6220580;28;20221;-73
2022/09/01 05:27:41;;;;;;;1.10;0.83;;;;;;;15.04;72.92;102386.19;6233184;28;20237;-72
2022/09/01 05:31:03;;;;;;;1.13;0.90;;;;;;;15.09;72.97;102390.25;6235661;28;20241;-72
2022/09/01 05:34:26;;;;;;;1.13;1.00;;;;;;;15.18;72.58;102391.31;6223548;28;20259;-73
2022/09/01 05:37:50;;;;;;;6.13;1.10;;;;;;;15.22;72.40;102390.06;6204168;28;20554;-73
2022/09/01 05:41:16;;;;;;;1.00;0.90;;;;;;;15.29;72.15;102393.97;6207922;28;20272;-73
2022/09/01 05:44:42;;;;;;;4.47;0.97;;;;;;;15.35;71.76;102390.78;6208098;28;20233;-72
2022/09/01 05:48:04;;;;;;;2.33;0.83;;;;;;;15.36;72.15;102392.47;6208137;28;20332;-73
2022/09/01 05:51:28;;;;;;;2.70;1.37;;;;;;;15.51;71.47;102395.78;6232386;28;20240;-73
2022/09/01 05:54:48;;;;;;;3.40;2.10;;;;;;;15.62;71.41;102385.72;6234700;28;20229;-73
2022/09/01 05:58:15;;;;;;;3.30;0.80;;;;;;;15.68;70.88;102406.09;6212526;28;20650;-73
2022/09/01 06:01:39;;;;;;;4.43;1.00;;;;;;;15.79;70.82;102393.28;6202368;28;20589;-73
2022/09/01 06:05:01;;;;;;;1.33;0.93;;;;;;;15.87;70.90;102403.50;6209778;28;20229;-73
2022/09/01 06:08:27;;;;;;;5.20;2.13;;;;;;;15.91;70.61;102404.97;6210780;28;20297;-74
2022/09/01 06:11:50;;;;;;;2.90;1.53;;;;;;;15.93;70.69;102406.56;6212365;28;20225;-74
2022/09/01 06:15:17;;;;;;;3.60;2.77;;;;;;;15.98;70.25;102400.69;6208252;28;20237;-72
2022/09/01 06:18:43;;;;;;;4.17;3.23;;;;;;;16.23;69.83;102397.53;6202087;28;20232;-73
2022/09/01 06:22:04;;;;;;;4.87;2.50;;;;;;;16.38;69.20;102395.31;6206165;28;20587;-73
2022/09/01 06:25:29;;;;;;;2.80;1.23;;;;;;;16.43;69.26;102401.22;6210485;28;20225;-73
2022/09/01 06:28:53;;;;;;;2.20;1.33;;;;;;;16.52;68.81;102400.47;6242111;28;20248;-73
2022/09/01 06:32:15;;;;;;;5.93;1.70;;;;;;;16.61;68.41;102402.34;6234762;28;20224;-75
2022/09/01 06:35:37;;;;;;;3.70;1.40;;;;;;;16.69;68.35;102402.50;6225346;28;20229;-73
2022/09/01 06:39:00;;;;;;;2.43;1.00;;;;;;;16.76;67.84;102399.09;6214668;28;20237;-73
2022/09/01 06:42:23;;;;;;;2.47;2.20;;;;;;;16.93;67.78;102408.47;6210108;28;20229;-73
2022/09/01 06:45:53;;;;;;;1.93;1.83;;;;;;;17.02;66.73;102409.50;6214639;28;20316;-73
2022/09/01 06:49:16;;;;;;;1.27;0.80;;;;;;;17.18;66.66;102410.66;6226759;28;20270;-74
2022/09/01 06:52:39;;;;;;;2.33;1.63;;;;;;;17.25;66.27;102411.81;6231707;28;20244;-72
2022/09/01 06:56:01;;;;;;;2.93;1.97;;;;;;;17.27;65.97;102409.78;6221365;28;20588;-73
2022/09/01 06:59:25;;;;;;;1.33;1.07;;;;;;;17.24;65.33;102410.09;6238133;28;20236;-73
2022/09/01 07:02:47;;;;;;;5.50;1.42;;;;;;;17.36;64.63;102416.25;6237367;28;20225;-73
2022/09/01 07:06:36;;;;;;;1.67;1.17;;;;;;;17.52;64.61;102412.00;6215640;28;20241;-73
2022/09/01 07:10:13;;;;;;;1.10;1.00;;;;;;;17.65;63.94;102403.53;6216210;28;20240;-73
2022/09/01 07:13:41;;;;;;;0.60;0.60;;;;;;;17.74;63.67;102407.25;6236232;28;20347;-73
2022/09/01 07:17:02;;;;;;;5.18;4.70;;;;;;;17.85;63.08;102410.69;6230763;28;20240;-72
2022/09/01 07:20:25;;;;;;;4.95;3.00;;;;;;;18.07;62.50;102409.50;6226668;28;20409;-73
2022/09/01 07:23:50;;;;;;;1.97;1.83;;;;;;;18.16;62.42;102416.81;6215909;28;20229;-73
2022/09/01 07:27:11;;;;;;;1.10;1.00;;;;;;;18.15;61.83;102415.06;6210465;28;20312;-72
2022/09/01 07:30:34;;;;;;;1.00;0.65;;;;;;;18.28;61.48;102416.50;6209547;28;20383;-73
2022/09/01 07:33:59;;;;;;;1.30;0.80;;;;;;;18.50;61.15;102420.78;6214162;28;20260;-73
2022/09/01 07:37:21;;;;;;;0.70;0.70;;;;;;;18.60;60.54;102420.72;6230203;28;20237;-74
2022/09/01 07:40:45;;;;;;;0.68;0.55;;;;;;;18.70;59.85;102419.66;6232852;28;20997;-72
2022/09/01 07:44:26;;;;;;;0.70;0.70;;;;;;;18.86;59.48;102414.41;6233052;28;20291;-73
2022/09/01 07:48:11;;;;;;;0.85;0.73;;;;;;;18.95;58.53;102421.69;6233058;28;20261;-72
2022/09/01 07:51:39;;;;;;;0.30;0.30;;;;;;;18.82;57.46;102423.03;6232943;28;20228;-72
2022/09/01 07:55:01;;;;;;;0.85;0.40;;;;;;;18.90;56.87;102424.00;6232938;28;20244;-73
2022/09/01 07:58:25;;;;;;;0.30;0.30;;;;;;;19.00;56.39;102422.06;6246427;28;20228;-73
2022/09/01 08:01:52;;;;;;;0.40;0.38;;;;;;;19.21;55.68;102420.97;6227102;28;20282;-73
2022/09/01 08:05:21;;;;;;;2.53;0.32;;;;;;;19.41;55.43;102426.16;6227183;28;20521;-73
2022/09/01 08:08:42;;;;;;;0.32;0.32;;;;;;;19.28;54.14;102428.38;6209656;28;20488;-73
2022/09/01 08:12:04;;;;;;;1.27;0.65;;;;;;;19.55;54.31;102433.81;6236127;28;20505;-73
2022/09/01 08:15:29;;;;;;;0.68;0.68;;;;;;;19.61;52.87;102435.09;6234165;28;20273;-73
2022/09/01 08:18:50;;;;;;;0.30;0.30;;;;;;;19.68;52.33;102430.69;6235103;28;21425;-73
2022/09/01 08:22:22;;;;;;;1.40;0.30;;;;;;;19.88;50.50;102432.22;6205627;28;20236;-73
2022/09/01 08:25:50;;;;;;;1.08;0.43;;;;;;;19.84;49.02;102426.22;6205982;28;20280;-73
2022/09/01 08:29:11;;;;;;;0.30;0.30;;;;;;;19.73;50.24;102420.13;6229903;28;20233;-72
2022/09/01 08:32:41;;;;;;;1.00;0.43;;;;;;;19.83;49.72;102434.59;6234328;28;20236;-73
2022/09/01 08:36:03;;;;;;;0.65;0.35;;;;;;;19.97;49.13;102422.19;6232439;28;20662;-73
2022/09/01 08:39:25;;;;;;;3.92;0.50;;;;;;;20.08;49.28;102424.69;6244396;28;20233;-73
2022/09/01 08:42:56;;;;;;;0.40;0.40;;;;;;;20.24;48.45;102424.81;6229891;28;20241;-73
2022/09/01 08:46:25;;;;;;;0.40;0.40;;;;;;;20.33;47.83;102427.47;6223748;28;20264;-73
2022/09/01 08:49:50;;;;;;;1.85;0.47;;;;;;;20.46;48.13;102425.13;6202037;28;20228;-72
2022/09/01 08:53:37;;;;;;;0.82;0.52;;;;;;;20.28;47.30;102424.34;6239858;28;20614;-73
2022/09/01 08:57:03;;;;;;;0.20;0.20;;;;;;;20.02;47.43;102425.31;6233137;28;20687;-72
2022/09/01 09:00:56;;;;;;;0.32;0.32;;;;;;;20.09;47.85;102429.16;6202648;28;20320;-72
2022/09/01 09:04:34;;;;;;;0.40;0.40;;;;;;;20.49;47.22;102424.81;6208505;28;20267;-73
2022/09/01 09:08:15;;;;;;;1.08;0.63;;;;;;;20.51;46.30;102425.50;6209570;28;20781;-72
2022/09/01 09:12:01;;;;;;;0.98;0.28;;;;;;;20.67;45.47;102417.38;6206425;28;20571;-73
2022/09/01 09:15:32;;;;;;;0.57;0.25;;;;;;;20.78;45.44;102416.22;6227854;28;20595;-73
2022/09/01 09:18:58;;;;;;;1.45;1.10;;;;;;;21.06;44.75;102417.75;6226220;28;20319;-73
2022/09/01 09:22:19;;;;;;;0.50;0.40;;;;;;;21.07;43.72;102413.13;6233832;28;20237;-73
2022/09/01 09:25:42;;;;;;;2.60;1.20;;;;;;;21.19;42.97;102407.16;6236593;28;20229;-73
2022/09/01 09:29:03;;;;;;;0.40;0.40;;;;;;;21.24;42.10;102409.38;6233284;28;20232;-73
2022/09/01 09:32:43;;;;;;;0.47;0.40;;;;;;;21.34;42.20;102413.69;6216273;28;20521;-73
2022/09/01 09:36:19;;;;;;;0.40;0.30;;;;;;;21.38;41.43;102403.25;6209001;28;20525;-73
2022/09/01 09:39:40;;;;;;;0.30;0.30;;;;;;;21.22;42.43;102406.81;6232083;28;20868;-73
2022/09/01 09:43:07;;;;;;;0.20;0.20;;;;;;;21.49;42.70;102400.16;6233501;28;20233;-73
2022/09/01 09:46:35;;;;;;;1.30;0.43;;;;;;;21.69;42.65;102396.06;6230077;28;20611;-73
2022/09/01 09:50:12;;;;;;;0.30;0.30;;;;;;;21.80;40.92;102401.19;6224216;28;20555;-72
2022/09/01 09:53:33;;;;;;;0.30;0.30;;;;;;;21.81;40.41;102402.91;6212600;28;20437;-72
2022/09/01 09:57:13;;;;;;;2.05;0.50;;;;;;;22.10;41.47;102395.03;6233937;28;20241;-73
2022/09/01 10:00:36;;;;;;;1.17;0.60;;;;;;;22.25;41.42;102386.94;6202980;28;20323;-72
2022/09/01 10:03:58;;;;;;;0.28;0.28;;;;;;;21.57;41.36;102375.44;6229952;28;20240;-73
2022/09/01 10:07:30;;;;;;;0.30;0.30;;;;;;;21.87;41.17;102373.94;6215223;28;20651;-72
2022/09/01 10:10:52;;;;;;;0.25;0.20;;;;;;;22.44;40.87;102372.78;6206350;28;20581;-73
2022/09/01 10:14:17;;;;;;;0.43;0.40;;;;;;;22.52;39.99;102369.16;6208781;28;20233;-73
2022/09/01 10:17:41;;;;;;;0.68;0.68;;;;;;;22.85;39.87;102374.34;6206197;28;20421;-72
2022/09/01 10:21:07;;;;;;;1.58;0.32;;;;;;;22.32;40.89;102363.19;6199924;28;20225;-72
2022/09/01 10:24:32;;;;;;;0.15;0.13;;;;;;;23.08;39.90;102363.41;6204242;28;20328;-72
2022/09/01 10:27:58;;;;;;;0.90;0.30;;;;;;;23.60;37.94;102361.66;6208397;28;20626;-72
2022/09/01 10:31:21;;;;;;;0.80;0.70;;;;;;;23.62;36.07;102362.34;6200203;28;20229;-71
2022/09/01 10:34:46;;;;;;;0.50;0.50;;;;;;;23.78;36.50;102353.91;6206835;28;20224;-73
2022/09/01 10:38:09;;;;;;;0.28;0.28;;;;;;;24.45;36.52;102360.28;6209511;28;20228;-72
2022/09/01 10:41:52;;;;;;;0.40;0.38;;;;;;;24.75;34.48;102352.88;6206328;28;20536;-73
2022/09/01 10:45:22;;;;;;;0.28;0.28;;;;;;;24.39;34.12;102351.91;6206410;28;20237;-72
2022/09/01 10:48:43;;;;;;;0.40;0.40;;;;;;;24.73;34.24;102346.66;6205831;28;20244;-72
2022/09/01 10:52:06;;;;;;;3.10;2.78;;;;;;;24.63;34.55;102350.78;6205412;28;20304;-73
2022/09/01 10:55:33;;;;;;;1.33;1.00;;;;;;;25.66;33.29;102346.69;6208880;28;20229;-72
2022/09/01 10:59:04;;;;;;;0.38;0.38;;;;;;;24.99;33.57;102365.50;6205849;28;20237;-72
2022/09/01 11:02:26;;;;;;;0.73;0.30;;;;;;;24.48;34.00;102359.94;6227802;28;20228;-72
2022/09/01 11:05:59;;;;;;;0.75;0.57;;;;;;;24.49;34.92;102358.88;6226186;28;20256;-72
2022/09/01 11:09:27;;;;;;;0.20;0.20;;;;;;;25.38;33.49;102354.88;6229273;28;20545;-73
2022/09/01 11:13:07;;;;;;;0.45;0.20;;;;;;;24.82;34.17;102353.84;6229105;28;20307;-73
2022/09/01 11:16:35;;;;;;;0.30;0.30;;;;;;;24.58;34.17;102343.06;6232968;28;20224;-72
2022/09/01 11:20:09;;;;;;;0.30;0.20;;;;;;;24.00;35.16;102346.66;6230252;28;20224;-72
2022/09/01 11:23:31;;;;;;;2.05;0.20;;;;;;;24.06;36.02;102345.06;6238977;28;20224;-72
2022/09/01 11:26:53;;;;;;;1.45;0.25;;;;;;;23.71;37.56;102339.19;6234945;28;20224;-72
2022/09/01 11:30:17;;;;;;;2.00;0.50;;;;;;;23.52;38.38;102336.97;6219303;28;20323;-72
2022/09/01 11:33:47;;;;;;;0.77;0.30;;;;;;;29.28;29.53;102331.28;6240458;28;20232;-72
2022/09/01 11:37:15;;;;;;;0.38;0.30;;;;;;;34.69;21.78;102327.44;6215046;28;20225;-73
2022/09/01 11:40:36;;;;;;;0.20;0.20;;;;;;;37.40;18.74;102325.00;6211283;28;20228;-73
2022/09/01 11:44:00;;;;;;;1.05;0.38;;;;;;;38.87;17.86;102318.84;6210782;28;20249;-73
2022/09/01 11:47:25;;;;;;;3.60;0.40;;;;;;;39.61;16.70;102309.34;6208809;28;20232;-73
2022/09/01 11:50:58;;;;;;;5.35;4.07;;;;;;;38.19;17.99;102312.00;6205716;28;20233;-73
2022/09/01 11:54:19;;;;;;;0.52;0.52;;;;;;;32.92;22.76;102323.56;6208167;28;20331;-73
2022/09/01 11:57:40;;;;;;;0.30;0.30;;;;;;;29.90;26.98;102317.31;6214854;28;20404;-73
2022/09/01 12:01:15;;;;;;;3.42;1.35;;;;;;;28.93;28.57;102315.03;6216485;28;20233;-72
2022/09/01 12:04:36;;;;;;;0.50;0.30;;;;;;;35.10;20.85;102310.00;6229577;28;20224;-73
2022/09/01 12:07:58;;;;;;;0.52;0.52;;;;;;;35.99;19.57;102305.50;6236118;28;20606;-73
2022/09/01 12:11:22;;;;;;;0.28;0.28;;;;;;;34.45;21.47;102312.81;6235979;28;20232;-72
2022/09/01 12:14:43;;;;;;;0.63;0.40;;;;;;;36.85;19.16;102306.81;6236875;28;20236;-72
2022/09/01 12:18:17;;;;;;;0.20;0.20;;;;;;;37.99;17.38;102311.22;6214062;28;20233;-73
2022/09/01 12:21:42;;;;;;;0.20;0.20;;;;;;;36.72;18.81;102310.13;6203294;28;20312;-73
2022/09/01 12:25:04;;;;;;;0.40;0.30;;;;;;;36.21;19.40;102296.09;6219975;28;20265;-73
2022/09/01 12:28:29;;;;;;;0.30;0.22;;;;;;;34.43;19.86;102283.34;6214258;28;20225;-72
2022/09/01 12:31:53;;;;;;;0.25;0.25;;;;;;;36.06;18.64;102289.28;6213357;28;20575;-73
2022/09/01 12:35:20;;;;;;;0.60;0.60;;;;;;;36.21;18.80;102287.66;6236065;28;20228;-72
2022/09/01 12:38:42;;;;;;;0.63;0.20;;;;;;;37.32;17.42;102288.94;6232702;28;20231;-73
2022/09/01 12:42:10;;;;;;;0.57;0.50;;;;;;;39.07;16.02;102286.84;6232932;28;20228;-72
2022/09/01 12:45:40;;;;;;;0.47;0.30;;;;;;;37.92;16.87;102288.13;6215245;28;20236;-72
2022/09/01 12:49:16;;;;;;;2.45;0.20;;;;;;;38.20;16.69;102276.19;6217990;28;20506;-72
2022/09/01 12:52:45;;;;;;;0.73;0.40;;;;;;;32.96;20.21;102268.84;6227363;28;20454;-72
2022/09/01 12:56:20;;;;;;;0.63;0.50;;;;;;;34.07;20.78;102273.59;6233027;28;20554;-73
2022/09/01 12:59:41;;;;;;;0.30;0.30;;;;;;;35.67;18.66;102267.34;6237768;28;20224;-73
2022/09/01 13:03:11;;;;;;;0.80;0.40;;;;;;;36.28;17.81;102274.22;6237714;28;20240;-72
2022/09/01 13:06:32;;;;;;;3.00;0.57;;;;;;;35.05;19.26;102270.69;6232995;28;20240;-72
2022/09/01 13:09:54;;;;;;;1.83;0.45;;;;;;;33.41;19.85;102266.06;6210808;28;20287;-72
2022/09/01 13:13:17;;;;;;;0.43;0.32;;;;;;;31.86;21.81;102277.56;6211982;28;20272;-73
2022/09/01 13:16:38;;;;;;;1.45;0.47;;;;;;;33.81;20.26;102263.13;6210209;28;20226;-73
2022/09/01 13:19:59;;;;;;;0.38;0.38;;;;;;;34.97;18.96;102262.72;6210156;28;20241;-72
2022/09/01 13:23:20;;;;;;;1.65;0.82;;;;;;;36.02;18.20;102262.84;6199518;28;20340;-73
2022/09/01 13:26:54;;;;;;;0.68;0.30;;;;;;;37.08;17.15;102259.63;6211252;28;20225;-73
2022/09/01 13:30:17;;;;;;;1.42;0.40;;;;;;;37.92;17.94;102257.97;6207610;28;20609;-72
2022/09/01 13:33:38;;;;;;;0.57;0.57;;;;;;;38.75;17.73;102244.16;6229915;28;20513;-72
2022/09/01 13:36:59;;;;;;;0.80;0.80;;;;;;;37.76;18.24;102256.25;6233494;28;20312;-72
2022/09/01 13:40:21;;;;;;;1.65;0.60;;;;;;;34.54;21.19;102251.59;6237438;28;20469;-72
2022/09/01 13:43:46;;;;;;;1.75;0.68;;;;;;;30.35;26.19;102251.16;6236976;28;20351;-72
2022/09/01 13:47:07;;;;;;;0.60;0.30;;;;;;;28.40;28.75;102253.31;6236565;28;20236;-71
2022/09/01 13:50:28;;;;;;;0.40;0.40;;;;;;;27.28;29.55;102248.97;6231498;28;20225;-72
2022/09/01 13:53:51;;;;;;;0.20;0.20;;;;;;;26.68;30.93;102252.66;6235275;28;20232;-71
2022/09/01 13:57:13;;;;;;;0.63;0.63;;;;;;;27.69;29.87;102259.84;6236027;28;20652;-73
2022/09/01 14:00:38;;;;;;;0.60;0.30;;;;;;;26.54;31.20;102253.69;6206218;28;20387;-72
2022/09/01 14:04:00;;;;;;;0.30;0.30;;;;;;;25.85;32.65;102252.88;6206809;28;20233;-73
2022/09/01 14:07:21;;;;;;;0.22;0.20;;;;;;;25.60;33.42;102253.53;6227144;28;20228;-72
2022/09/01 14:10:45;;;;;;;1.45;0.93;;;;;;;25.31;33.84;102249.88;6229842;28;20240;-72
2022/09/01 14:14:05;;;;;;;0.95;0.35;;;;;;;25.10;33.50;102246.28;6232620;28;20320;-72
2022/09/01 14:17:28;;;;;;;0.38;0.30;;;;;;;24.59;34.23;102249.09;6204274;28;20233;-73
2022/09/01 14:20:51;;;;;;;0.30;0.30;;;;;;;24.91;34.26;102255.22;6205186;28;20220;-73
2022/09/01 14:24:11;;;;;;;0.47;0.35;;;;;;;25.08;32.98;102240.94;6210325;28;20241;-72
2022/09/01 14:27:32;;;;;;;0.30;0.30;;;;;;;25.19;34.02;102223.88;6208865;28;20233;-73
2022/09/01 14:30:53;;;;;;;0.30;0.30;;;;;;;25.32;33.11;102226.72;6204195;28;20244;-73
2022/09/01 14:34:17;;;;;;;0.30;0.30;;;;;;;26.16;32.14;102227.56;6235432;28;20304;-72
2022/09/01 14:37:39;;;;;;;0.32;0.28;;;;;;;27.27;29.50;102210.38;6233770;28;20318;-73
2022/09/01 14:41:01;;;;;;;0.30;0.30;;;;;;;27.92;29.33;102206.69;6229593;28;20242;-73
2022/09/01 14:44:22;;;;;;;0.40;0.40;;;;;;;28.26;28.62;102209.19;6222393;28;20312;-72
2022/09/01 14:47:44;;;;;;;0.57;0.55;;;;;;;28.18;28.20;102204.72;6206334;28;20232;-73
2022/09/01 14:51:08;;;;;;;0.90;0.50;;;;;;;28.15;28.45;102198.75;6214815;28;20315;-73
2022/09/01 14:54:29;;;;;;;0.40;0.32;;;;;;;27.61;29.45;102197.19;6214180;28;20232;-73
2022/09/01 14:57:51;;;;;;;0.57;0.57;;;;;;;28.29;29.43;102184.63;6221128;28;20225;-73
2022/09/01 15:01:12;;;;;;;0.40;0.40;;;;;;;28.28;29.35;102198.72;6227591;28;20883;-73
2022/09/01 15:04:33;;;;;;;0.30;0.22;;;;;;;28.54;29.56;102184.69;6238381;28;20224;-72
2022/09/01 15:07:55;;;;;;;0.88;0.40;;;;;;;27.89;30.12;102187.75;6237410;28;20232;-73
2022/09/01 15:11:20;;;;;;;0.73;0.45;;;;;;;26.82;31.72;102173.31;6233902;28;20331;-72
2022/09/01 15:14:40;;;;;;;0.52;0.40;;;;;;;26.01;33.04;102185.34;6238514;28;20236;-72
2022/09/01 15:18:02;;;;;;;2.80;0.57;;;;;;;25.72;33.96;102178.16;6236430;28;20224;-72
2022/09/01 15:21:24;;;;;;;1.95;0.50;;;;;;;25.28;34.57;102181.22;6223493;28;20251;-72
2022/09/01 15:24:47;;;;;;;0.80;0.32;;;;;;;25.07;36.02;102181.28;6227543;28;20529;-73
2022/09/01 15:28:09;;;;;;;0.63;0.38;;;;;;;24.78;36.23;102181.44;6229640;28;20308;-72
2022/09/01 15:31:32;;;;;;;1.08;0.93;;;;;;;24.58;36.11;102174.81;6231460;28;20220;-72
2022/09/01 15:34:53;;;;;;;2.05;1.92;;;;;;;24.39;36.93;102173.56;6224756;28;20244;-73
2022/09/01 15:38:15;;;;;;;0.50;0.50;;;;;;;24.12;37.23;102167.91;6232064;28;20228;-72
2022/09/01 15:41:37;;;;;;;0.52;0.52;;;;;;;24.79;36.02;102172.09;6226080;28;20605;-72
2022/09/01 15:44:58;;;;;;;0.68;0.28;;;;;;;25.67;35.13;102166.88;6230914;28;20241;-73
2022/09/01 15:48:19;;;;;;;0.52;0.40;;;;;;;25.96;34.68;102166.63;6211585;28;20229;-73
2022/09/01 15:51:42;;;;;;;0.35;0.35;;;;;;;26.43;33.63;102165.75;6235511;28;20228;-73
2022/09/01 15:55:03;;;;;;;0.30;0.30;;;;;;;26.37;33.52;102171.28;6233077;28;20590;-73